createdAt,value
2018-12-30T00:00:19.932Z,90.26
2018-12-30T00:02:47.699Z,90.33
2018-12-30T00:05:15.650Z,90.45
2018-12-30T00:07:43.157Z,90.45
2018-12-30T00:10:11.111Z,90.30
2018-12-30T00:12:38.750Z,90.42
2018-12-30T00:15:06.944Z,90.45
2018-12-30T00:17:34.456Z,90.38
2018-12-30T00:20:02.614Z,90.04
2018-12-30T00:22:30.349Z,90.43
2018-12-30T00:24:57.722Z,90.39
2018-12-30T00:27:25.441Z,90.21
2018-12-30T00:29:53.589Z,90.59
2018-12-30T00:32:21.713Z,90.39
2018-12-30T00:34:49.718Z,90.12
2018-12-30T00:37:16.997Z,90.03
2018-12-30T00:39:44.597Z,90.06
2018-12-30T00:42:11.693Z,90.48
2018-12-30T00:44:38.937Z,90.72
2018-12-30T00:47:06.346Z,90.76
2018-12-30T00:49:34.273Z,90.47
2018-12-30T00:52:02.008Z,90.42
2018-12-30T00:54:29.819Z,90.46
2018-12-30T00:56:57.500Z,90.19
2018-12-30T00:59:24.976Z,89.81
2018-12-30T01:01:52.404Z,89.63
2018-12-30T01:04:20.241Z,90.17
2018-12-30T01:06:47.689Z,90.06
2018-12-30T01:09:15.085Z,90.00
2018-12-30T01:11:42.207Z,89.79
2018-12-30T01:14:09.592Z,90.15
2018-12-30T01:16:37.613Z,89.60
2018-12-30T01:19:05.275Z,88.85
2018-12-30T01:21:32.400Z,88.70
2018-12-30T01:24:00.161Z,89.87
2018-12-30T01:26:28.202Z,89.70
2018-12-30T01:28:55.421Z,90.29
2018-12-30T01:31:22.657Z,89.43
2018-12-30T01:33:50.575Z,89.76
2018-12-30T01:36:17.669Z,89.65
2018-12-30T01:38:45.486Z,89.33
2018-12-30T01:41:13.228Z,89.33
2018-12-30T01:43:40.340Z,89.35
2018-12-30T01:46:08.641Z,90.00
2018-12-30T01:48:36.845Z,90.15
2018-12-30T01:51:03.975Z,90.31
2018-12-30T01:53:31.833Z,89.94
2018-12-30T01:55:59.386Z,89.84
2018-12-30T01:58:26.897Z,89.10
2018-12-30T02:00:54.323Z,89.83
2018-12-30T02:03:21.571Z,88.97
2018-12-30T02:05:49.408Z,90.10
2018-12-30T02:08:17.324Z,89.61
2018-12-30T02:10:44.469Z,89.78
2018-12-30T02:13:11.655Z,89.10
2018-12-30T02:15:38.912Z,89.01
2018-12-30T02:18:06.770Z,89.32
2018-12-30T02:20:34.446Z,89.71
2018-12-30T02:23:01.724Z,89.70
2018-12-30T02:25:29.307Z,89.78
2018-12-30T02:27:56.869Z,88.13
2018-12-30T02:30:25.021Z,88.86
2018-12-30T02:32:52.515Z,87.92
2018-12-30T02:35:19.878Z,88.70
2018-12-30T02:37:47.293Z,89.29
2018-12-30T02:40:19.055Z,89.38
2018-12-30T02:42:47.226Z,88.93
2018-12-30T02:45:14.983Z,89.03
2018-12-30T02:47:42.432Z,89.02
2018-12-30T02:50:09.561Z,89.16
2018-12-30T02:52:37.026Z,89.08
2018-12-30T02:55:04.733Z,88.70
2018-12-30T02:57:31.867Z,88.51
2018-12-30T02:59:59.380Z,88.83
2018-12-30T03:02:26.761Z,88.52
2018-12-30T03:04:54.566Z,88.64
2018-12-30T03:07:22.422Z,88.83
2018-12-30T03:09:51.167Z,88.29
2018-12-30T03:12:18.904Z,88.73
2018-12-30T03:14:46.904Z,88.44
2018-12-30T03:17:14.521Z,88.10
2018-12-30T03:19:41.944Z,88.52
2018-12-30T03:22:10.247Z,87.36
2018-12-30T03:24:38.241Z,87.47
2018-12-30T03:27:05.601Z,86.99
2018-12-30T03:29:33.390Z,88.18
2018-12-30T03:32:01.306Z,88.17
2018-12-30T03:34:29.148Z,88.13
2018-12-30T03:36:56.247Z,88.23
2018-12-30T03:39:24.453Z,88.58
2018-12-30T03:41:52.492Z,87.40
2018-12-30T03:44:20.038Z,87.35
2018-12-30T03:46:47.507Z,87.96
2018-12-30T03:49:15.430Z,87.72
2018-12-30T03:51:43.304Z,88.00
2018-12-30T03:54:12.209Z,87.85
2018-12-30T03:56:39.433Z,87.99
2018-12-30T03:59:06.846Z,87.77
2018-12-30T04:01:34.162Z,87.98
2018-12-30T04:04:02.163Z,87.30
2018-12-30T04:06:29.637Z,87.11
2018-12-30T04:08:56.877Z,87.93
2018-12-30T04:11:24.549Z,87.57
2018-12-30T04:13:53.699Z,86.86
2018-12-30T04:16:21.007Z,87.00
2018-12-30T04:18:48.503Z,86.19
2018-12-30T04:21:15.827Z,86.06
2018-12-30T04:23:43.308Z,85.62
2018-12-30T04:26:10.925Z,86.21
2018-12-30T04:28:38.474Z,86.73
2018-12-30T04:31:06.361Z,85.83
2018-12-30T04:33:33.785Z,86.15
2018-12-30T04:36:01.869Z,86.38
2018-12-30T04:38:30.172Z,85.60
2018-12-30T04:40:57.743Z,84.74
2018-12-30T04:43:25.161Z,84.89
2018-12-30T04:45:52.677Z,83.95
2018-12-30T04:48:20.225Z,84.88
2018-12-30T04:50:47.614Z,85.13
2018-12-30T04:53:14.741Z,85.18
2018-12-30T04:55:42.034Z,84.67
2018-12-30T04:58:09.420Z,84.68
2018-12-30T05:00:36.816Z,84.17
2018-12-30T05:03:04.490Z,84.65
2018-12-30T05:05:31.634Z,84.71
2018-12-30T05:08:02.933Z,82.27
2018-12-30T05:10:30.280Z,83.36
2018-12-30T05:12:58.136Z,83.64
2018-12-30T05:15:26.110Z,83.53
2018-12-30T05:17:53.577Z,83.29
2018-12-30T05:20:21.869Z,83.62
2018-12-30T05:22:49.380Z,82.48
2018-12-30T05:25:17.748Z,82.65
2018-12-30T05:27:45.432Z,82.65
2018-12-30T05:30:13.528Z,83.34
2018-12-30T05:32:41.170Z,84.52
2018-12-30T05:35:08.590Z,83.83
2018-12-30T05:37:36.259Z,83.67
2018-12-30T05:40:04.257Z,84.78
2018-12-30T05:42:33.079Z,83.79
2018-12-30T05:45:00.831Z,84.04
2018-12-30T05:47:28.552Z,84.01
2018-12-30T05:49:55.945Z,83.68
2018-12-30T05:52:23.125Z,84.25
2018-12-30T05:54:50.785Z,84.14
2018-12-30T05:57:18.366Z,84.97
2018-12-30T05:59:46.225Z,83.80
2018-12-30T06:02:13.465Z,84.84
2018-12-30T06:04:41.354Z,82.94
2018-12-30T06:07:09.279Z,84.24
2018-12-30T06:09:36.747Z,84.32
2018-12-30T06:12:04.825Z,84.23
2018-12-30T06:14:32.740Z,84.50
2018-12-30T06:17:00.930Z,84.24
2018-12-30T06:19:28.583Z,84.40
2018-12-30T06:21:56.435Z,83.96
2018-12-30T06:24:23.887Z,84.23
2018-12-30T06:26:51.650Z,83.62
2018-12-30T06:29:18.739Z,83.06
2018-12-30T06:31:46.116Z,83.52
2018-12-30T06:34:13.529Z,83.83
2018-12-30T06:36:41.343Z,84.23
2018-12-30T06:39:08.719Z,83.76
2018-12-30T06:41:36.513Z,83.37
2018-12-30T06:44:04.142Z,84.14
2018-12-30T06:46:31.270Z,83.87
2018-12-30T06:48:58.953Z,83.72
2018-12-30T06:51:26.387Z,83.20
2018-12-30T06:53:53.652Z,83.78
2018-12-30T06:56:21.338Z,84.50
2018-12-30T06:58:48.445Z,84.43
2018-12-30T07:01:15.723Z,83.28
2018-12-30T07:03:43.716Z,84.51
2018-12-30T07:06:11.565Z,84.41
2018-12-30T07:08:39.036Z,84.74
2018-12-30T07:11:06.894Z,84.21
2018-12-30T07:13:34.956Z,84.15
2018-12-30T07:16:02.468Z,84.33
2018-12-30T07:18:29.886Z,84.50
2018-12-30T07:20:57.639Z,85.20
2018-12-30T07:23:25.388Z,84.78
2018-12-30T07:25:53.417Z,84.16
2018-12-30T07:28:20.576Z,84.56
2018-12-30T07:30:48.396Z,84.98
2018-12-30T07:33:16.214Z,85.17
2018-12-30T07:35:44.074Z,85.24
2018-12-30T07:38:11.603Z,85.02
2018-12-30T07:40:39.288Z,85.52
2018-12-30T07:43:07.081Z,84.03
2018-12-30T07:45:34.608Z,85.25
2018-12-30T07:48:02.022Z,84.83
2018-12-30T07:50:29.397Z,85.55
2018-12-30T07:52:56.732Z,85.49
2018-12-30T07:55:24.153Z,85.44
2018-12-30T07:57:51.769Z,85.66
2018-12-30T08:00:19.505Z,85.36
2018-12-30T08:02:46.908Z,85.81
2018-12-30T08:05:14.158Z,84.65
2018-12-30T08:07:41.266Z,84.97
2018-12-30T08:10:08.997Z,85.90
2018-12-30T08:12:36.805Z,85.83
2018-12-30T08:15:05.058Z,85.50
2018-12-30T08:17:32.549Z,85.68
2018-12-30T08:20:00.473Z,86.00
2018-12-30T08:22:27.947Z,85.12
2018-12-30T08:24:55.483Z,85.14
2018-12-30T08:27:23.322Z,85.41
2018-12-30T08:29:50.887Z,84.63
2018-12-30T08:32:18.352Z,85.37
2018-12-30T08:34:45.942Z,84.47
2018-12-30T08:37:13.552Z,83.72
2018-12-30T08:39:41.049Z,83.53
2018-12-30T08:42:08.202Z,82.33
2018-12-30T08:44:35.347Z,81.89
2018-12-30T08:47:03.265Z,81.97
2018-12-30T08:49:30.389Z,83.63
2018-12-30T08:51:57.789Z,81.85
2018-12-30T08:54:25.049Z,81.85
2018-12-30T08:56:52.936Z,82.46
2018-12-30T08:59:20.509Z,83.08
2018-12-30T09:01:47.965Z,81.65
2018-12-30T09:04:15.677Z,81.00
2018-12-30T09:06:43.157Z,82.03
2018-12-30T09:09:10.431Z,80.30
2018-12-30T09:11:37.684Z,81.18
2018-12-30T09:14:05.172Z,81.52
2018-12-30T09:16:32.361Z,79.73
2018-12-30T09:18:59.502Z,81.88
2018-12-30T09:21:27.087Z,81.35
2018-12-30T09:23:54.450Z,81.63
2018-12-30T09:26:21.556Z,79.83
2018-12-30T09:28:49.419Z,81.96
2018-12-30T09:31:16.819Z,81.21
2018-12-30T09:33:44.326Z,81.07
2018-12-30T09:36:11.842Z,78.84
2018-12-30T09:38:39.496Z,79.42
2018-12-30T09:41:06.946Z,80.57
2018-12-30T09:43:39.448Z,80.10
2018-12-30T09:46:07.004Z,80.71
2018-12-30T09:48:34.409Z,78.71
2018-12-30T09:51:02.644Z,79.26
2018-12-30T09:53:29.805Z,77.61
2018-12-30T09:55:57.882Z,79.17
2018-12-30T09:58:25.176Z,78.94
2018-12-30T10:00:53.261Z,80.72
2018-12-30T10:03:20.792Z,79.29
2018-12-30T10:05:48.496Z,78.65
2018-12-30T10:08:15.641Z,77.25
2018-12-30T10:10:42.817Z,78.79
2018-12-30T10:13:10.071Z,78.02
2018-12-30T10:15:37.189Z,80.87
2018-12-30T10:18:04.335Z,80.37
2018-12-30T10:20:32.344Z,79.58
2018-12-30T10:22:59.563Z,79.23
2018-12-30T10:25:30.468Z,79.47
2018-12-30T10:27:57.976Z,78.53
2018-12-30T10:30:26.749Z,79.99
2018-12-30T10:32:54.461Z,78.30
2018-12-30T10:35:22.291Z,77.58
2018-12-30T10:37:49.690Z,77.88
2018-12-30T10:40:17.247Z,77.58
2018-12-30T10:42:44.826Z,78.46
2018-12-30T10:45:12.512Z,78.48
2018-12-30T10:47:39.993Z,76.99
2018-12-30T10:50:07.696Z,77.92
2018-12-30T10:52:35.079Z,77.62
2018-12-30T10:55:02.470Z,78.02
2018-12-30T10:57:29.980Z,78.61
2018-12-30T10:59:57.304Z,79.63
2018-12-30T11:02:24.805Z,77.58
2018-12-30T11:04:52.541Z,76.29
2018-12-30T11:07:20.066Z,77.48
2018-12-30T11:09:48.004Z,77.18
2018-12-30T11:12:15.306Z,77.42
2018-12-30T11:14:42.980Z,75.98
2018-12-30T11:17:11.128Z,74.78
2018-12-30T11:19:38.965Z,76.62
2018-12-30T11:22:06.445Z,76.54
2018-12-30T11:24:34.301Z,75.27
2018-12-30T11:27:02.454Z,76.04
2018-12-30T11:29:30.326Z,78.04
2018-12-30T11:31:58.029Z,77.66
2018-12-30T11:34:25.719Z,74.67
2018-12-30T11:36:54.002Z,75.85
2018-12-30T11:39:22.533Z,77.36
2018-12-30T11:41:50.021Z,73.45
2018-12-30T11:44:17.260Z,77.10
2018-12-30T11:46:44.847Z,74.94
2018-12-30T11:49:12.670Z,75.37
2018-12-30T11:51:40.496Z,76.58
2018-12-30T11:54:07.881Z,73.95
2018-12-30T11:56:35.506Z,76.77
2018-12-30T11:59:02.893Z,74.08
2018-12-30T12:01:30.299Z,73.28
2018-12-30T12:03:58.020Z,75.33
2018-12-30T12:06:25.402Z,71.87
2018-12-30T12:08:52.885Z,75.52
2018-12-30T12:11:20.567Z,74.52
2018-12-30T12:13:47.988Z,76.09
2018-12-30T12:16:15.460Z,77.58
2018-12-30T12:18:43.281Z,76.01
2018-12-30T12:21:10.376Z,75.69
2018-12-30T12:23:37.789Z,75.14
2018-12-30T12:26:05.310Z,75.83
2018-12-30T12:28:32.691Z,76.35
2018-12-30T12:31:00.165Z,77.31
2018-12-30T12:33:27.733Z,76.64
2018-12-30T12:35:55.453Z,76.50
2018-12-30T12:38:23.232Z,75.24
2018-12-30T12:40:51.054Z,74.57
2018-12-30T12:43:18.845Z,72.57
2018-12-30T12:45:46.651Z,72.44
2018-12-30T12:48:14.199Z,76.07
2018-12-30T12:50:42.341Z,73.54
2018-12-30T12:53:10.116Z,72.73
2018-12-30T12:55:37.651Z,73.23
2018-12-30T12:58:04.977Z,74.54
2018-12-30T13:00:32.203Z,76.01
2018-12-30T13:02:59.815Z,73.04
2018-12-30T13:05:27.014Z,71.37
2018-12-30T13:07:54.529Z,74.54
2018-12-30T13:10:22.810Z,75.10
2018-12-30T13:12:50.493Z,75.11
2018-12-30T13:15:18.309Z,73.98
2018-12-30T13:17:45.893Z,72.69
2018-12-30T13:20:14.047Z,75.15
2018-12-30T13:22:42.072Z,73.76
2018-12-30T13:25:09.790Z,74.12
2018-12-30T13:27:37.246Z,75.34
2018-12-30T13:30:06.122Z,74.64
2018-12-30T13:32:33.394Z,75.27
2018-12-30T13:35:05.145Z,74.91
2018-12-30T13:37:33.033Z,75.21
2018-12-30T13:40:01.170Z,75.06
2018-12-30T13:42:28.997Z,73.08
2018-12-30T13:44:56.657Z,75.81
2018-12-30T13:47:24.633Z,75.89
2018-12-30T13:49:52.570Z,77.43
2018-12-30T13:52:20.358Z,75.36
2018-12-30T13:54:48.127Z,75.31
2018-12-30T13:57:15.595Z,72.94
2018-12-30T13:59:43.024Z,75.70
2018-12-30T14:02:10.341Z,75.18
2018-12-30T14:04:38.478Z,75.24
2018-12-30T14:07:05.847Z,76.27
2018-12-30T14:09:33.394Z,73.89
2018-12-30T14:12:00.958Z,76.67
2018-12-30T14:14:28.223Z,74.34
2018-12-30T14:16:55.956Z,74.15
2018-12-30T14:19:23.740Z,73.99
2018-12-30T14:21:51.274Z,75.01
2018-12-30T14:24:18.944Z,75.45
2018-12-30T14:26:46.309Z,76.02
2018-12-30T14:29:13.704Z,75.73
2018-12-30T14:31:41.618Z,74.76
2018-12-30T14:34:09.040Z,77.36
2018-12-30T14:36:36.979Z,74.06
2018-12-30T14:39:06.330Z,76.06
2018-12-30T14:41:33.414Z,76.15
2018-12-30T14:44:00.933Z,75.90
2018-12-30T14:46:34.650Z,74.91
2018-12-30T14:48:57.666Z,76.79
2018-12-30T14:51:25.752Z,77.23
2018-12-30T14:53:53.212Z,73.89
2018-12-30T14:56:21.384Z,77.74
2018-12-30T14:58:49.023Z,76.47
2018-12-30T15:01:17.007Z,77.17
2018-12-30T15:03:44.624Z,76.57
2018-12-30T15:06:12.407Z,74.95
2018-12-30T15:08:40.098Z,73.60
2018-12-30T15:11:07.707Z,75.04
2018-12-30T15:13:35.197Z,76.45
2018-12-30T15:16:02.581Z,75.61
2018-12-30T15:18:29.951Z,76.24
2018-12-30T15:20:57.176Z,75.42
2018-12-30T15:23:24.681Z,75.36
2018-12-30T15:25:52.137Z,76.89
2018-12-30T15:28:19.287Z,74.44
2018-12-30T15:30:46.692Z,75.35
2018-12-30T15:33:14.589Z,74.93
2018-12-30T15:35:42.070Z,74.67
2018-12-30T15:38:10.130Z,76.45
2018-12-30T15:40:37.588Z,76.56
2018-12-30T15:43:05.177Z,76.28
2018-12-30T15:45:33.001Z,76.91
2018-12-30T15:48:01.201Z,76.27
2018-12-30T15:50:28.445Z,75.53
2018-12-30T15:52:56.003Z,74.91
2018-12-30T15:55:24.071Z,77.24
2018-12-30T15:57:51.721Z,74.62
2018-12-30T16:00:18.879Z,74.54
2018-12-30T16:02:50.013Z,75.83
2018-12-30T16:05:17.488Z,75.64
2018-12-30T16:07:44.634Z,75.04
2018-12-30T16:10:12.012Z,76.84
2018-12-30T16:12:39.572Z,76.24
2018-12-30T16:15:07.628Z,76.78
2018-12-30T16:17:35.256Z,75.49
2018-12-30T16:20:03.372Z,76.33
2018-12-30T16:22:31.233Z,77.42
2018-12-30T16:24:58.585Z,77.43
2018-12-30T16:27:26.273Z,76.77
2018-12-30T16:29:53.411Z,77.94
2018-12-30T16:32:21.697Z,77.80
2018-12-30T16:34:48.968Z,76.26
2018-12-30T16:37:17.332Z,77.43
2018-12-30T16:39:44.846Z,76.01
2018-12-30T16:42:12.728Z,76.51
2018-12-30T16:44:44.009Z,77.06
2018-12-30T16:47:12.285Z,77.93
2018-12-30T16:49:40.266Z,76.64
2018-12-30T16:52:07.959Z,77.20
2018-12-30T16:54:35.566Z,78.50
2018-12-30T16:57:03.038Z,77.43
2018-12-30T16:59:30.287Z,77.21
2018-12-30T17:01:57.716Z,77.20
2018-12-30T17:04:25.266Z,76.60
2018-12-30T17:06:52.508Z,77.22
2018-12-30T17:09:19.986Z,76.47
2018-12-30T17:11:47.547Z,76.75
2018-12-30T17:14:14.813Z,76.45
2018-12-30T17:16:42.376Z,76.27
2018-12-30T17:19:10.251Z,76.93
2018-12-30T17:21:38.447Z,75.77
2018-12-30T17:24:06.399Z,76.73
2018-12-30T17:26:39.018Z,77.07
2018-12-30T17:29:06.327Z,78.17
2018-12-30T17:31:33.590Z,77.87
2018-12-30T17:34:01.085Z,78.03
2018-12-30T17:36:28.859Z,78.99
2018-12-30T17:38:56.657Z,77.31
2018-12-30T17:41:24.123Z,76.66
2018-12-30T17:43:51.864Z,77.48
2018-12-30T17:46:19.662Z,76.84
2018-12-30T17:48:46.801Z,77.38
2018-12-30T17:51:14.045Z,76.72
2018-12-30T17:53:41.640Z,76.42
2018-12-30T17:56:09.365Z,76.72
2018-12-30T17:58:37.078Z,76.29
2018-12-30T18:01:04.420Z,76.46
2018-12-30T18:03:32.178Z,76.52
2018-12-30T18:06:00.538Z,76.94
2018-12-30T18:08:28.012Z,77.14
2018-12-30T18:10:55.478Z,77.81
2018-12-30T18:13:23.390Z,78.15
2018-12-30T18:15:51.540Z,77.54
2018-12-30T18:18:19.509Z,77.25
2018-12-30T18:20:47.113Z,78.04
2018-12-30T18:23:14.257Z,77.42
2018-12-30T18:25:41.521Z,78.06
2018-12-30T18:28:10.115Z,78.13
2018-12-30T18:30:37.338Z,77.45
2018-12-30T18:33:05.383Z,77.62
2018-12-30T18:35:32.760Z,78.67
2018-12-30T18:37:59.901Z,78.63
2018-12-30T18:40:28.301Z,78.78
2018-12-30T18:42:55.877Z,78.34
2018-12-30T18:45:23.007Z,78.08
2018-12-30T18:47:50.868Z,79.14
2018-12-30T18:50:18.371Z,77.78
2018-12-30T18:52:45.512Z,77.41
2018-12-30T18:55:13.335Z,78.55
2018-12-30T18:57:41.017Z,79.02
2018-12-30T19:00:10.016Z,79.04
2018-12-30T19:02:37.249Z,78.52
2018-12-30T19:05:05.925Z,78.09
2018-12-30T19:07:33.593Z,78.45
2018-12-30T19:10:01.379Z,78.43
2018-12-30T19:12:29.274Z,78.69
2018-12-30T19:14:56.803Z,77.94
2018-12-30T19:17:24.109Z,78.67
2018-12-30T19:19:51.855Z,78.03
2018-12-30T19:22:19.893Z,78.59
2018-12-30T19:24:47.044Z,78.33
2018-12-30T19:27:15.099Z,77.97
2018-12-30T19:29:42.545Z,78.00
2018-12-30T19:32:10.451Z,78.49
2018-12-30T19:34:37.785Z,78.60
2018-12-30T19:37:05.025Z,78.84
2018-12-30T19:39:32.586Z,78.60
2018-12-30T19:41:59.969Z,78.68
2018-12-30T19:44:27.288Z,78.22
2018-12-30T19:46:54.977Z,78.41
2018-12-30T19:49:22.454Z,78.60
2018-12-30T19:51:49.649Z,78.90
2018-12-30T19:54:17.512Z,78.61
2018-12-30T19:56:45.330Z,78.41
2018-12-30T19:59:12.458Z,78.75
2018-12-30T20:01:40.159Z,79.11
2018-12-30T20:04:07.341Z,79.43
2018-12-30T20:06:34.714Z,79.57
2018-12-30T20:09:01.874Z,79.77
2018-12-30T20:11:29.094Z,79.36
2018-12-30T20:13:56.492Z,80.44
2018-12-30T20:16:23.928Z,80.32
2018-12-30T20:18:53.563Z,80.76
2018-12-30T20:21:22.391Z,80.74
2018-12-30T20:23:50.601Z,80.22
2018-12-30T20:26:18.134Z,80.17
2018-12-30T20:28:45.902Z,80.50
2018-12-30T20:31:13.622Z,80.71
2018-12-30T20:33:41.024Z,81.06
2018-12-30T20:36:08.981Z,81.11
2018-12-30T20:38:36.137Z,81.29
2018-12-30T20:41:04.179Z,80.89
2018-12-30T20:43:31.639Z,80.99
2018-12-30T20:45:59.507Z,81.18
2018-12-30T20:48:26.629Z,81.37
2018-12-30T20:50:54.118Z,81.29
2018-12-30T20:53:22.306Z,81.29
2018-12-30T20:55:49.789Z,81.63
2018-12-30T20:58:16.992Z,81.57
2018-12-30T21:00:44.498Z,81.33
2018-12-30T21:03:12.474Z,81.86
2018-12-30T21:05:40.095Z,81.49
2018-12-30T21:08:07.503Z,81.84
2018-12-30T21:10:35.574Z,81.88
2018-12-30T21:13:04.456Z,81.69
2018-12-30T21:15:32.534Z,81.83
2018-12-30T21:17:59.988Z,82.61
2018-12-30T21:20:27.545Z,82.14
2018-12-30T21:22:55.604Z,82.06
2018-12-30T21:25:23.761Z,82.94
2018-12-30T21:27:51.027Z,83.01
2018-12-30T21:30:18.982Z,82.36
2018-12-30T21:32:46.090Z,82.59
2018-12-30T21:35:13.443Z,82.98
2018-12-30T21:37:41.324Z,83.25
2018-12-30T21:40:08.678Z,82.88
2018-12-30T21:42:43.977Z,84.00
2018-12-30T21:45:09.176Z,83.87
2018-12-30T21:47:37.077Z,84.60
2018-12-30T21:50:05.913Z,83.43
2018-12-30T21:52:33.857Z,83.50
2018-12-30T21:55:01.334Z,84.24
2018-12-30T21:57:28.783Z,84.58
2018-12-30T21:59:56.826Z,83.99
2018-12-30T22:02:24.372Z,84.65
2018-12-30T22:04:51.964Z,84.43
2018-12-30T22:07:19.454Z,85.36
2018-12-30T22:09:47.155Z,85.42
2018-12-30T22:12:14.494Z,85.49
2018-12-30T22:14:41.642Z,84.90
2018-12-30T22:17:09.702Z,84.89
2018-12-30T22:19:36.846Z,85.22
2018-12-30T22:22:04.845Z,85.50
2018-12-30T22:24:32.407Z,85.76
2018-12-30T22:27:00.065Z,85.04
2018-12-30T22:29:27.715Z,84.71
2018-12-30T22:31:54.876Z,85.37
2018-12-30T22:34:22.455Z,85.72
2018-12-30T22:36:50.184Z,85.93
2018-12-30T22:39:19.231Z,85.45
2018-12-30T22:41:46.807Z,85.69
2018-12-30T22:44:14.229Z,85.30
2018-12-30T22:46:41.639Z,85.50
2018-12-30T22:49:09.753Z,85.87
2018-12-30T22:51:37.282Z,86.59
2018-12-30T22:54:04.534Z,85.57
2018-12-30T22:56:32.159Z,85.83
2018-12-30T22:58:59.988Z,85.44
2018-12-30T23:01:32.198Z,85.82
2018-12-30T23:03:59.964Z,85.43
2018-12-30T23:06:27.722Z,85.44
2018-12-30T23:08:55.240Z,85.80
2018-12-30T23:11:22.898Z,85.92
2018-12-30T23:13:50.429Z,85.32
2018-12-30T23:16:17.821Z,85.20
2018-12-30T23:18:45.602Z,86.22
2018-12-30T23:21:12.813Z,86.21
2018-12-30T23:23:40.076Z,86.52
2018-12-30T23:26:07.699Z,86.31
2018-12-30T23:28:35.304Z,85.83
2018-12-30T23:31:02.544Z,85.87
2018-12-30T23:33:30.165Z,86.31
2018-12-30T23:35:57.425Z,85.63
2018-12-30T23:38:25.373Z,85.22
2018-12-30T23:40:53.284Z,85.29
2018-12-30T23:43:20.364Z,85.25
2018-12-30T23:45:48.293Z,86.02
2018-12-30T23:48:15.672Z,85.39
2018-12-30T23:50:42.810Z,86.42
2018-12-30T23:53:10.025Z,86.71
2018-12-30T23:55:37.598Z,86.94
2018-12-30T23:58:05.097Z,86.83
